| time (UTC) | temp F | wind direction | speed MPH | gust MPH | rain 1hr in | rain 24hr in | rain mn in | humidity % | barometer mb |
| 20260502195806 | 65 | 150 | 9.0 | 11.0 | 0.00 | 0.00 | 0.00 | 23 | 1016.0 |
| 20260502195406 | 65 | 149 | 8.0 | 11.0 | 0.00 | 0.00 | 0.00 | 23 | 1016.0 |
| 20260502195206 | 65 | 149 | 9.0 | 11.0 | 0.00 | 0.00 | 0.00 | 23 | 1016.0 |
| 20260502195007 | 65 | 148 | 10.0 | 11.0 | 0.00 | 0.00 | 0.00 | 23 | 1016.0 |
| 20260502194806 | 65 | 147 | 9.0 | 11.0 | 0.00 | 0.00 | 0.00 | 23 | 1016.0 |
| 20260502194608 | 65 | 147 | 8.0 | 11.0 | 0.00 | 0.00 | 0.00 | 23 | 1016.0 |
| 20260502194407 | 65 | 147 | 8.0 | 11.0 | 0.00 | 0.00 | 0.00 | 23 | 1016.0 |
| 20260502194206 | 65 | 147 | 9.0 | 11.0 | 0.00 | 0.00 | 0.00 | 23 | 1016.0 |
| 20260502193808 | 65 | 147 | 9.0 | 11.0 | 0.00 | 0.00 | 0.00 | 23 | 1016.0 |
| 20260502193406 | 65 | 146 | 9.0 | 11.0 | 0.00 | 0.00 | 0.00 | 23 | 1016.0 |
| 20260502193206 | 65 | 148 | 9.0 | 11.0 | 0.00 | 0.00 | 0.00 | 23 | 1016.0 |
| 20260502193007 | 65 | 147 | 10.0 | 11.0 | 0.00 | 0.00 | 0.00 | 22 | 1016.0 |
| 20260502192807 | 66 | 149 | 9.0 | 11.0 | 0.00 | 0.00 | 0.00 | 22 | 1016.0 |
| 20260502192608 | 66 | 150 | 9.0 | 11.0 | 0.00 | 0.00 | 0.00 | 22 | 1016.0 |
| 20260502192407 | 66 | 150 | 8.0 | 11.0 | 0.00 | 0.00 | 0.00 | 22 | 1016.0 |
| 20260502192007 | 66 | 150 | 8.0 | 11.0 | 0.00 | 0.00 | 0.00 | 22 | 1016.0 |
| 20260502191806 | 66 | 149 | 8.0 | 11.0 | 0.00 | 0.00 | 0.00 | 22 | 1016.0 |
| 20260502191606 | 66 | 148 | 9.0 | 10.0 | 0.00 | 0.00 | 0.00 | 22 | 1016.0 |
| 20260502191407 | 66 | 147 | 8.0 | 10.0 | 0.00 | 0.00 | 0.00 | 20 | 1016.0 |
| 20260502191206 | 66 | 147 | 7.0 | 10.0 | 0.00 | 0.00 | 0.00 | 20 | 1016.0 |
| 20260502191007 | 66 | 147 | 9.0 | 10.0 | 0.00 | 0.00 | 0.00 | 20 | 1016.0 |
| 20260502190807 | 66 | 147 | 8.0 | 10.0 | 0.00 | 0.00 | 0.00 | 20 | 1016.0 |
| 20260502190607 | 66 | 147 | 8.0 | 11.0 | 0.00 | 0.00 | 0.00 | 20 | 1016.0 |
| 20260502190206 | 67 | 146 | 8.0 | 11.0 | 0.00 | 0.00 | 0.00 | 20 | 1016.0 |
| 20260502190006 | 67 | 145 | 8.0 | 11.0 | 0.00 | 0.00 | 0.00 | 17 | 1016.0 |
| 20260502185806 | 67 | 145 | 8.0 | 11.0 | 0.00 | 0.00 | 0.00 | 17 | 1016.0 |
| 20260502185407 | 67 | 143 | 7.0 | 11.0 | 0.00 | 0.00 | 0.00 | 17 | 1016.0 |
| 20260502185206 | 67 | 141 | 8.0 | 11.0 | 0.00 | 0.00 | 0.00 | 17 | 1016.0 |
| 20260502185006 | 67 | 140 | 8.0 | 10.0 | 0.00 | 0.00 | 0.00 | 17 | 1016.0 |
| 20260502184807 | 67 | 138 | 8.0 | 10.0 | 0.00 | 0.00 | 0.00 | 17 | 1016.0 |
| 20260502184606 | 67 | 136 | 8.0 | 10.0 | 0.00 | 0.00 | 0.00 | 17 | 1016.0 |
| 20260502184407 | 67 | 135 | 7.0 | 10.0 | 0.00 | 0.00 | 0.00 | 17 | 1016.0 |
| 20260502184207 | 67 | 134 | 9.0 | 10.0 | 0.00 | 0.00 | 0.00 | 17 | 1016.0 |
| 20260502184007 | 67 | 134 | 8.0 | 10.0 | 0.00 | 0.00 | 0.00 | 17 | 1016.0 |
| 20260502183807 | 67 | 134 | 9.0 | 10.0 | 0.00 | 0.00 | 0.00 | 17 | 1016.0 |
| 20260502183606 | 68 | 133 | 8.0 | 10.0 | 0.00 | 0.00 | 0.00 | 17 | 1016.0 |
| 20260502183007 | 68 | 132 | 7.0 | 10.0 | 0.00 | 0.00 | 0.00 | 14 | 1016.0 |
| 20260502182806 | 68 | 131 | 8.0 | 10.0 | 0.00 | 0.00 | 0.00 | 14 | 1016.0 |
| 20260502182608 | 68 | 131 | 7.0 | 10.0 | 0.00 | 0.00 | 0.00 | 14 | 1016.0 |
| 20260502182207 | 68 | 130 | 8.0 | 9.0 | 0.00 | 0.00 | 0.00 | 14 | 1016.0 |
| 20260502182006 | 68 | 131 | 7.0 | 9.0 | 0.00 | 0.00 | 0.00 | 14 | 1016.0 |
| 20260502181807 | 68 | 131 | 7.0 | 9.0 | 0.00 | 0.00 | 0.00 | 14 | 1016.0 |
| 20260502181606 | 69 | 132 | 7.0 | 9.0 | 0.00 | 0.00 | 0.00 | 14 | 1016.0 |
| 20260502181207 | 69 | 133 | 7.0 | 9.0 | 0.00 | 0.00 | 0.00 | 14 | 1016.0 |
| 20260502181008 | 69 | 134 | 7.0 | 9.0 | 0.00 | 0.00 | 0.00 | 14 | 1016.0 |
| 20260502180807 | 69 | 135 | 8.0 | 9.0 | 0.00 | 0.00 | 0.00 | 14 | 1016.0 |
| 20260502180606 | 69 | 134 | 7.0 | 9.0 | 0.00 | 0.00 | 0.00 | 14 | 1016.0 |
| 20260502180206 | 70 | 135 | 7.0 | 9.0 | 0.00 | 0.00 | 0.00 | 14 | 1016.0 |
| 20260502170407 | 75 | 132 | 8.0 | 12.0 | 0.00 | 0.00 | 0.00 | 10 | 1016.0 |
| 20260502170207 | 75 | 131 | 8.0 | 12.0 | 0.00 | 0.00 | 0.00 | 10 | 1016.0 |
| 20260502164206 | 76 | 154 | 7.0 | 11.0 | 0.00 | 0.00 | 0.00 | 10 | 1016.0 |
| 20260502164007 | 76 | 151 | 7.0 | 10.0 | 0.00 | 0.00 | 0.00 | 10 | 1016.0 |
| 20260502163811 | 76 | 151 | 7.0 | 12.0 | 0.00 | 0.00 | 0.00 | 10 | 1016.0 |
| 20260502163606 | 77 | 147 | 7.0 | 12.0 | 0.00 | 0.00 | 0.00 | 10 | 1016.0 |
| 20260502163407 | 77 | 143 | 6.0 | 13.0 | 0.00 | 0.00 | 0.00 | 10 | 1016.0 |
| 20260502163006 | 75 | 146 | 9.0 | 13.0 | 0.00 | 0.00 | 0.00 | 10 | 1016.0 |
| 20260502162806 | 76 | 145 | 10.0 | 13.0 | 0.00 | 0.00 | 0.00 | 10 | 1017.0 |
| 20260502162607 | 75 | 146 | 11.0 | 13.0 | 0.00 | 0.00 | 0.00 | 10 | 1017.0 |
| 20260502162407 | 77 | 144 | 7.0 | 12.0 | 0.00 | 0.00 | 0.00 | 10 | 1017.0 |
| 20260502162207 | 77 | 140 | 8.0 | 12.0 | 0.00 | 0.00 | 0.00 | 10 | 1017.0 |
| 20260502162009 | 76 | 139 | 9.0 | 13.0 | 0.00 | 0.00 | 0.00 | 10 | 1017.0 |
| 20260502161807 | 75 | 141 | 9.0 | 15.0 | 0.00 | 0.00 | 0.00 | 10 | 1017.0 |
| 20260502161609 | 75 | 142 | 11.0 | 15.0 | 0.00 | 0.00 | 0.00 | 10 | 1017.0 |
| 20260502161407 | 76 | 145 | 8.0 | 15.0 | 0.00 | 0.00 | 0.00 | 10 | 1017.0 |
| 20260502161206 | 75 | 147 | 11.0 | 15.0 | 0.00 | 0.00 | 0.00 | 10 | 1017.0 |
| 20260502161007 | 75 | 149 | 11.0 | 15.0 | 0.00 | 0.00 | 0.00 | 10 | 1017.0 |
| 20260502160807 | 76 | 147 | 10.0 | 14.0 | 0.00 | 0.00 | 0.00 | 10 | 1017.0 |
| 20260502160606 | 76 | 145 | 9.0 | 14.0 | 0.00 | 0.00 | 0.00 | 10 | 1017.0 |
| 20260502160407 | 77 | 141 | 6.0 | 14.0 | 0.00 | 0.00 | 0.00 | 10 | 1017.0 |
| 20260502160208 | 76 | 141 | 12.0 | 14.0 | 0.00 | 0.00 | 0.00 | 10 | 1017.0 |
| 20260502152207 | 80 | 190 | 5.0 | 12.0 | 0.00 | 0.00 | 0.00 | 10 | 1017.0 |
| 20260502152007 | 78 | 183 | 8.0 | 12.0 | 0.00 | 0.00 | 0.00 | 10 | 1017.0 |
| 20260502151607 | 80 | 171 | 8.0 | 13.0 | 0.00 | 0.00 | 0.00 | 10 | 1017.0 |
| 20260502151410 | 79 | 162 | 6.0 | 13.0 | 0.00 | 0.00 | 0.00 | 10 | 1017.0 |
| 20260502151207 | 80 | 155 | 7.0 | 13.0 | 0.00 | 0.00 | 0.00 | 10 | 1017.0 |
| 20260502151007 | 80 | 145 | 6.0 | 13.0 | 0.00 | 0.00 | 0.00 | 10 | 1017.0 |
| 20260502150607 | 78 | 139 | 7.0 | 12.0 | 0.00 | 0.00 | 0.00 | 10 | 1017.0 |
| 20260502150407 | 78 | 139 | 7.0 | 11.0 | 0.00 | 0.00 | 0.00 | 10 | 1017.0 |
| 20260502150206 | 78 | 144 | 6.0 | 11.0 | 0.00 | 0.00 | 0.00 | 10 | 1017.0 |
| 20260502130408 | 85 | 183 | 0.0 | 8.0 | 0.00 | 0.00 | 0.00 | 10 | 1019.0 |
| 20260502130206 | 84 | 141 | 6.0 | 8.0 | 0.00 | 0.00 | 0.00 | 10 | 1019.0 |
| 20260502123606 | 79 | 153 | 10.0 | 13.0 | 0.00 | 0.00 | 0.00 | 10 | 1019.0 |
| 20260502123407 | 77 | 153 | 8.0 | 13.0 | 0.00 | 0.00 | 0.00 | 10 | 1019.0 |
| 20260502123207 | 79 | 155 | 8.0 | 13.0 | 0.00 | 0.00 | 0.00 | 10 | 1019.0 |
| 20260502123006 | 77 | 163 | 10.0 | 13.0 | 0.00 | 0.00 | 0.00 | 10 | 1019.0 |
| 20260502122806 | 80 | 165 | 3.0 | 13.0 | 0.00 | 0.00 | 0.00 | 10 | 1020.0 |
| 20260502122607 | 78 | 166 | 10.0 | 13.0 | 0.00 | 0.00 | 0.00 | 12 | 1020.0 |
| 20260502122007 | 80 | 169 | 7.0 | 13.0 | 0.00 | 0.00 | 0.00 | 10 | 1020.0 |
| 20260502121807 | 79 | 172 | 11.0 | 15.0 | 0.00 | 0.00 | 0.00 | 12 | 1020.0 |
| 20260502121607 | 80 | 171 | 6.0 | 20.0 | 0.00 | 0.00 | 0.00 | 10 | 1020.0 |
| 20260502121207 | 78 | 163 | 9.0 | 20.0 | 0.00 | 0.00 | 0.00 | 10 | 1020.0 |
| 20260502121007 | 76 | 160 | 10.0 | 20.0 | 0.00 | 0.00 | 0.00 | 10 | 1020.0 |
| 20260502120809 | 78 | 169 | 11.0 | 20.0 | 0.00 | 0.00 | 0.00 | 10 | 1020.0 |
| 20260502120608 | 81 | 185 | 6.0 | 12.0 | 0.00 | 0.00 | 0.00 | 10 | 1020.0 |
| 20260502120406 | 79 | 181 | 8.0 | 12.0 | 0.00 | 0.00 | 0.00 | 10 | 1020.0 |
| 20260502120207 | 78 | 185 | 4.0 | 14.0 | 0.00 | 0.00 | 0.00 | 12 | 1020.0 |
| 20260502115806 | 77 | 179 | 8.0 | 14.0 | 0.00 | 0.00 | 0.00 | 12 | 1020.0 |
| 20260502115607 | 78 | 174 | 8.0 | 14.0 | 0.00 | 0.00 | 0.00 | 12 | 1020.0 |
| 20260502115407 | 75 | 172 | 9.0 | 14.0 | 0.00 | 0.00 | 0.00 | 13 | 1020.0 |
| 20260502115208 | 76 | 164 | 9.0 | 13.0 | 0.00 | 0.00 | 0.00 | 12 | 1020.0 |
| 20260502115008 | 76 | 157 | 8.0 | 13.0 | 0.00 | 0.00 | 0.00 | 13 | 1020.0 |
| 20260502114807 | 76 | 155 | 11.0 | 13.0 | 0.00 | 0.00 | 0.00 | 10 | 1020.0 |
| 20260502114608 | 78 | 152 | 6.0 | 13.0 | 0.00 | 0.00 | 0.00 | 10 | 1020.0 |
| 20260502114407 | 79 | 176 | 6.0 | 10.0 | 0.00 | 0.00 | 0.00 | 10 | 1020.0 |
| 20260502114206 | 80 | 216 | 0.0 | 10.0 | 0.00 | 0.00 | 0.00 | 10 | 1020.0 |
| 20260502113807 | 80 | 239 | 6.0 | 13.0 | 0.00 | 0.00 | 0.00 | 11 | 1020.0 |
| 20260502113606 | 79 | 239 | 6.0 | 13.0 | 0.00 | 0.00 | 0.00 | 12 | 1020.0 |
| 20260502113407 | 79 | 225 | 5.0 | 13.0 | 0.00 | 0.00 | 0.00 | 10 | 1020.0 |
| 20260502113207 | 79 | 197 | 5.0 | 13.0 | 0.00 | 0.00 | 0.00 | 12 | 1020.0 |
| 20260502112806 | 80 | 162 | 6.0 | 12.0 | 0.00 | 0.00 | 0.00 | 10 | 1021.0 |
| 20260502112608 | 78 | 163 | 7.0 | 12.0 | 0.00 | 0.00 | 0.00 | 10 | 1021.0 |
| 20260502112407 | 78 | 177 | 9.0 | 12.0 | 0.00 | 0.00 | 0.00 | 10 | 1021.0 |
| 20260502112207 | 80 | 183 | 4.0 | 10.0 | 0.00 | 0.00 | 0.00 | 10 | 1021.0 |
| 20260502112006 | 77 | 183 | 7.0 | 11.0 | 0.00 | 0.00 | 0.00 | 10 | 1021.0 |
| 20260502111807 | 77 | 182 | 6.0 | 11.0 | 0.00 | 0.00 | 0.00 | 12 | 1021.0 |
| 20260502111407 | 79 | 188 | 6.0 | 11.0 | 0.00 | 0.00 | 0.00 | 10 | 1021.0 |
| 20260502111206 | 80 | 184 | 8.0 | 11.0 | 0.00 | 0.00 | 0.00 | 10 | 1021.0 |
| 20260502110607 | 81 | 165 | 4.0 | 11.0 | 0.00 | 0.00 | 0.00 | 11 | 1021.0 |
| 20260502110407 | 81 | 162 | 4.0 | 14.0 | 0.00 | 0.00 | 0.00 | 11 | 1021.0 |
| 20260502110206 | 79 | 169 | 4.0 | 14.0 | 0.00 | 0.00 | 0.00 | 12 | 1021.0 |
| 20260502105807 | 76 | 171 | 10.0 | 14.0 | 0.00 | 0.00 | 0.00 | 13 | 1021.0 |
| 20260502105607 | 75 | 166 | 12.0 | 14.0 | 0.00 | 0.00 | 0.00 | 13 | 1021.0 |
| 20260502105207 | 77 | 171 | 9.0 | 13.0 | 0.00 | 0.00 | 0.00 | 12 | 1021.0 |
| 20260502105007 | 79 | 186 | 9.0 | 12.0 | 0.00 | 0.00 | 0.00 | 12 | 1021.0 |
| 20260502104807 | 79 | 192 | 7.0 | 11.0 | 0.00 | 0.00 | 0.00 | 12 | 1021.0 |
| 20260502104607 | 80 | 210 | 5.0 | 10.0 | 0.00 | 0.00 | 0.00 | 14 | 1021.0 |
| 20260502104408 | 77 | 214 | 6.0 | 10.0 | 0.00 | 0.00 | 0.00 | 12 | 1021.0 |
| 20260502104210 | 79 | 209 | 5.0 | 10.0 | 0.00 | 0.00 | 0.00 | 12 | 1021.0 |
| 20260502103407 | 78 | 162 | 6.0 | 10.0 | 0.00 | 0.00 | 0.00 | 12 | 1021.0 |
| 20260502103220 | 79 | 158 | 6.0 | 11.0 | 0.00 | 0.00 | 0.00 | 12 | 1021.0 |
| 20260502102807 | 78 | 152 | 4.0 | 12.0 | 0.00 | 0.00 | 0.00 | 14 | 1021.0 |
| 20260502102607 | 77 | 154 | 6.0 | 12.0 | 0.00 | 0.00 | 0.00 | 15 | 1021.0 |
| 20260502102406 | 75 | 159 | 8.0 | 12.0 | 0.00 | 0.00 | 0.00 | 15 | 1021.0 |
| 20260502102207 | 75 | 149 | 10.0 | 12.0 | 0.00 | 0.00 | 0.00 | 15 | 1021.0 |
| 20260502102007 | 78 | 150 | 6.0 | 12.0 | 0.00 | 0.00 | 0.00 | 15 | 1021.0 |
| 20260502101407 | 76 | 146 | 7.0 | 14.0 | 0.00 | 0.00 | 0.00 | 15 | 1021.0 |
| 20260502101207 | 74 | 152 | 6.0 | 14.0 | 0.00 | 0.00 | 0.00 | 15 | 1021.0 |
| 20260502101007 | 73 | 153 | 9.0 | 14.0 | 0.00 | 0.00 | 0.00 | 15 | 1021.0 |
| 20260502100807 | 73 | 153 | 9.0 | 14.0 | 0.00 | 0.00 | 0.00 | 15 | 1021.0 |
| 20260502100207 | 73 | 178 | 10.0 | 14.0 | 0.00 | 0.00 | 0.00 | 18 | 1021.0 |
| 20260502091407 | 73 | 219 | 7.0 | 13.0 | 0.00 | 0.00 | 0.00 | 20 | 1022.0 |
| 20260502091207 | 73 | 221 | 5.0 | 11.0 | 0.00 | 0.00 | 0.00 | 18 | 1022.0 |
| 20260502091007 | 78 | 224 | 5.0 | 9.0 | 0.00 | 0.00 | 0.00 | 19 | 1022.0 |
| 20260502090807 | 77 | 222 | 7.0 | 9.0 | 0.00 | 0.00 | 0.00 | 20 | 1022.0 |
| 20260502090606 | 80 | 221 | 3.0 | 7.0 | 0.00 | 0.00 | 0.00 | 19 | 1022.0 |
| 20260502090407 | 77 | 208 | 4.0 | 9.0 | 0.00 | 0.00 | 0.00 | 17 | 1022.0 |
| 20260502090207 | 79 | 204 | 3.0 | 9.0 | 0.00 | 0.00 | 0.00 | 17 | 1022.0 |
| 20260502071407 | 71 | 181 | 6.0 | 7.0 | 0.00 | 0.00 | 0.00 | 23 | 1023.0 |
| 20260502071208 | 70 | 181 | 5.0 | 7.0 | 0.00 | 0.00 | 0.00 | 24 | 1023.0 |
| 20260502071007 | 71 | 178 | 3.0 | 7.0 | 0.00 | 0.00 | 0.00 | 23 | 1023.0 |
| 20260502070807 | 72 | 171 | 6.0 | 7.0 | 0.00 | 0.00 | 0.00 | 23 | 1023.0 |
| 20260502070608 | 71 | 168 | 4.0 | 7.0 | 0.00 | 0.00 | 0.00 | 23 | 1023.0 |
| 20260502070407 | 70 | 173 | 5.0 | 7.0 | 0.00 | 0.00 | 0.00 | 24 | 1023.0 |
| 20260502070207 | 70 | 171 | 4.0 | 7.0 | 0.00 | 0.00 | 0.00 | 24 | 1023.0 |
| 20260502070008 | 71 | 174 | 3.0 | 7.0 | 0.00 | 0.00 | 0.00 | 24 | 1023.0 |
| 20260502065807 | 70 | 177 | 4.0 | 7.0 | 0.00 | 0.00 | 0.00 | 25 | 1022.0 |
| 20260502065607 | 69 | 181 | 6.0 | 7.0 | 0.00 | 0.00 | 0.00 | 25 | 1022.0 |
| 20260502065407 | 68 | 177 | 6.0 | 7.0 | 0.00 | 0.00 | 0.00 | 25 | 1022.0 |
| 20260502065207 | 70 | 179 | 4.0 | 7.0 | 0.00 | 0.00 | 0.00 | 25 | 1022.0 |
| 20260502065007 | 70 | 177 | 6.0 | 7.0 | 0.00 | 0.00 | 0.00 | 25 | 1022.0 |
| 20260502064807 | 69 | 178 | 5.0 | 7.0 | 0.00 | 0.00 | 0.00 | 25 | 1022.0 |
| 20260502064607 | 71 | 177 | 4.0 | 7.0 | 0.00 | 0.00 | 0.00 | 25 | 1022.0 |
| 20260502064207 | 70 | 169 | 3.0 | 7.0 | 0.00 | 0.00 | 0.00 | 25 | 1023.0 |
| 20260502064006 | 69 | 167 | 4.0 | 7.0 | 0.00 | 0.00 | 0.00 | 25 | 1023.0 |
| 20260502063807 | 72 | 162 | 3.0 | 6.0 | 0.00 | 0.00 | 0.00 | 24 | 1023.0 |
| 20260502063607 | 72 | 158 | 4.0 | 6.0 | 0.00 | 0.00 | 0.00 | 25 | 1023.0 |
| 20260502063409 | 72 | 158 | 3.0 | 6.0 | 0.00 | 0.00 | 0.00 | 25 | 1023.0 |
| 20260502063207 | 71 | 159 | 4.0 | 6.0 | 0.00 | 0.00 | 0.00 | 25 | 1023.0 |
| 20260502063007 | 70 | 162 | 5.0 | 6.0 | 0.00 | 0.00 | 0.00 | 25 | 1023.0 |
| 20260502062807 | 72 | 163 | 4.0 | 6.0 | 0.00 | 0.00 | 0.00 | 25 | 1023.0 |
| 20260502062606 | 70 | 165 | 4.0 | 6.0 | 0.00 | 0.00 | 0.00 | 26 | 1023.0 |
| 20260502062407 | 69 | 166 | 4.0 | 6.0 | 0.00 | 0.00 | 0.00 | 25 | 1023.0 |
| 20260502062207 | 68 | 166 | 5.0 | 6.0 | 0.00 | 0.00 | 0.00 | 26 | 1023.0 |
| 20260502062007 | 69 | 164 | 5.0 | 6.0 | 0.00 | 0.00 | 0.00 | 26 | 1023.0 |
| 20260502061807 | 70 | 164 | 4.0 | 6.0 | 0.00 | 0.00 | 0.00 | 26 | 1023.0 |
| 20260502061407 | 68 | 167 | 5.0 | 7.0 | 0.00 | 0.00 | 0.00 | 26 | 1023.0 |
| 20260502061209 | 67 | 169 | 5.0 | 7.0 | 0.00 | 0.00 | 0.00 | 27 | 1023.0 |
| 20260502061007 | 67 | 169 | 5.0 | 7.0 | 0.00 | 0.00 | 0.00 | 26 | 1023.0 |
| 20260502060607 | 66 | 170 | 5.0 | 7.0 | 0.00 | 0.00 | 0.00 | 26 | 1023.0 |
| 20260502060406 | 67 | 172 | 5.0 | 7.0 | 0.00 | 0.00 | 0.00 | 26 | 1023.0 |
| 20260502060207 | 68 | 173 | 5.0 | 7.0 | 0.00 | 0.00 | 0.00 | 27 | 1023.0 |
| 20260502055806 | 66 | 174 | 4.0 | 7.0 | 0.00 | 0.00 | 0.00 | 27 | 1023.0 |
| 20260502055607 | 66 | 174 | 5.0 | 7.0 | 0.00 | 0.00 | 0.00 | 27 | 1023.0 |
| 20260502055407 | 66 | 174 | 5.0 | 7.0 | 0.00 | 0.00 | 0.00 | 27 | 1023.0 |
| 20260502055208 | 66 | 172 | 5.0 | 6.0 | 0.00 | 0.00 | 0.00 | 27 | 1023.0 |
| 20260502055007 | 66 | 172 | 4.0 | 6.0 | 0.00 | 0.00 | 0.00 | 27 | 1023.0 |
| 20260502054807 | 65 | 173 | 5.0 | 6.0 | 0.00 | 0.00 | 0.00 | 27 | 1023.0 |
| 20260502054607 | 66 | 172 | 4.0 | 6.0 | 0.00 | 0.00 | 0.00 | 28 | 1023.0 |
| 20260502054407 | 65 | 170 | 4.0 | 6.0 | 0.00 | 0.00 | 0.00 | 28 | 1023.0 |
| 20260502054206 | 65 | 169 | 4.0 | 6.0 | 0.00 | 0.00 | 0.00 | 28 | 1023.0 |
| 20260502053808 | 66 | 168 | 4.0 | 6.0 | 0.00 | 0.00 | 0.00 | 28 | 1023.0 |
| 20260502053607 | 66 | 168 | 5.0 | 6.0 | 0.00 | 0.00 | 0.00 | 28 | 1023.0 |
| 20260502053407 | 64 | 168 | 5.0 | 6.0 | 0.00 | 0.00 | 0.00 | 28 | 1023.0 |
| 20260502053207 | 64 | 168 | 5.0 | 6.0 | 0.00 | 0.00 | 0.00 | 28 | 1023.0 |
| 20260502053008 | 64 | 167 | 4.0 | 6.0 | 0.00 | 0.00 | 0.00 | 28 | 1023.0 |
| 20260502052806 | 64 | 166 | 4.0 | 6.0 | 0.00 | 0.00 | 0.00 | 29 | 1022.0 |
| 20260502052607 | 64 | 165 | 4.0 | 6.0 | 0.00 | 0.00 | 0.00 | 28 | 1022.0 |
| 20260502052407 | 64 | 163 | 5.0 | 7.0 | 0.00 | 0.00 | 0.00 | 28 | 1022.0 |
| 20260502051607 | 64 | 159 | 5.0 | 7.0 | 0.00 | 0.00 | 0.00 | 28 | 1022.0 |
| 20260502051407 | 64 | 159 | 5.0 | 6.0 | 0.00 | 0.00 | 0.00 | 28 | 1022.0 |
| 20260502051208 | 65 | 160 | 5.0 | 6.0 | 0.00 | 0.00 | 0.00 | 28 | 1022.0 |
| 20260502051007 | 64 | 163 | 5.0 | 6.0 | 0.00 | 0.00 | 0.00 | 28 | 1022.0 |
| 20260502050607 | 64 | 167 | 5.0 | 6.0 | 0.00 | 0.00 | 0.00 | 28 | 1022.0 |
| 20260502050408 | 63 | 170 | 5.0 | 7.0 | 0.00 | 0.00 | 0.00 | 29 | 1022.0 |
| 20260502050207 | 62 | 171 | 5.0 | 7.0 | 0.00 | 0.00 | 0.00 | 29 | 1022.0 |
| 20260502050007 | 62 | 171 | 4.0 | 7.0 | 0.00 | 0.00 | 0.00 | 29 | 1022.0 |
| 20260502045807 | 62 | 171 | 5.0 | 7.0 | 0.00 | 0.00 | 0.00 | 29 | 1022.0 |
| 20260502045607 | 62 | 170 | 6.0 | 7.0 | 0.00 | 0.00 | 0.00 | 29 | 1022.0 |
| 20260502045408 | 62 | 169 | 5.0 | 7.0 | 0.00 | 0.00 | 0.00 | 29 | 1022.0 |
| 20260502045207 | 62 | 168 | 6.0 | 7.0 | 0.00 | 0.00 | 0.00 | 29 | 1022.0 |
| 20260502045007 | 62 | 168 | 5.0 | 7.0 | 0.00 | 0.00 | 0.00 | 29 | 1022.0 |
| 20260502044808 | 62 | 169 | 5.0 | 7.0 | 0.00 | 0.00 | 0.00 | 29 | 1022.0 |
| 20260502044607 | 62 | 171 | 6.0 | 7.0 | 0.00 | 0.00 | 0.00 | 29 | 1022.0 |
| 20260502044208 | 61 | 170 | 6.0 | 7.0 | 0.00 | 0.00 | 0.00 | 30 | 1022.0 |
| 20260502044007 | 61 | 170 | 6.0 | 7.0 | 0.00 | 0.00 | 0.00 | 29 | 1022.0 |
| 20260502043807 | 61 | 169 | 6.0 | 7.0 | 0.00 | 0.00 | 0.00 | 30 | 1022.0 |
| 20260502043607 | 61 | 168 | 6.0 | 7.0 | 0.00 | 0.00 | 0.00 | 29 | 1022.0 |
| 20260502043007 | 61 | 171 | 6.0 | 7.0 | 0.00 | 0.00 | 0.00 | 30 | 1022.0 |
| 20260502042807 | 61 | 172 | 5.0 | 7.0 | 0.00 | 0.00 | 0.00 | 29 | 1022.0 |
| 20260502042407 | 61 | 172 | 6.0 | 6.0 | 0.00 | 0.00 | 0.00 | 29 | 1022.0 |
| 20260502042207 | 61 | 172 | 6.0 | 6.0 | 0.00 | 0.00 | 0.00 | 30 | 1022.0 |
| 20260502042007 | 61 | 172 | 6.0 | 6.0 | 0.00 | 0.00 | 0.00 | 29 | 1022.0 |
| 20260502041807 | 61 | 171 | 6.0 | 6.0 | 0.00 | 0.00 | 0.00 | 29 | 1022.0 |
| 20260502041607 | 61 | 171 | 6.0 | 6.0 | 0.00 | 0.00 | 0.00 | 30 | 1022.0 |
| 20260502041407 | 61 | 171 | 6.0 | 6.0 | 0.00 | 0.00 | 0.00 | 30 | 1022.0 |
| 20260502041207 | 61 | 171 | 5.0 | 6.0 | 0.00 | 0.00 | 0.00 | 30 | 1022.0 |
| 20260502041007 | 61 | 171 | 6.0 | 6.0 | 0.00 | 0.00 | 0.00 | 30 | 1022.0 |
| 20260502040607 | 60 | 170 | 6.0 | 6.0 | 0.00 | 0.00 | 0.00 | 30 | 1022.0 |
| 20260502040407 | 60 | 169 | 5.0 | 6.0 | 0.00 | 0.00 | 0.00 | 30 | 1022.0 |
| 20260502040207 | 60 | 168 | 6.0 | 6.0 | 0.00 | 0.00 | 0.00 | 30 | 1022.0 |
| 20260502040007 | 60 | 166 | 6.0 | 6.0 | 0.00 | 0.00 | 0.00 | 30 | 1022.0 |
| 20260502035807 | 60 | 165 | 5.0 | 6.0 | 0.00 | 0.00 | 0.00 | 30 | 1022.0 |
| 20260502035607 | 60 | 165 | 5.0 | 6.0 | 0.00 | 0.00 | 0.00 | 30 | 1022.0 |
| 20260502035407 | 60 | 167 | 5.0 | 5.0 | 0.00 | 0.00 | 0.00 | 30 | 1022.0 |
| 20260502035207 | 60 | 170 | 5.0 | 6.0 | 0.00 | 0.00 | 0.00 | 31 | 1022.0 |
| 20260502035007 | 60 | 173 | 5.0 | 6.0 | 0.00 | 0.00 | 0.00 | 31 | 1022.0 |
| 20260502034807 | 60 | 177 | 5.0 | 6.0 | 0.00 | 0.00 | 0.00 | 31 | 1022.0 |
| 20260502034609 | 60 | 179 | 4.0 | 6.0 | 0.00 | 0.00 | 0.00 | 31 | 1022.0 |
| 20260502034407 | 60 | 178 | 5.0 | 6.0 | 0.00 | 0.00 | 0.00 | 31 | 1022.0 |
| 20260502034207 | 59 | 178 | 4.0 | 5.0 | 0.00 | 0.00 | 0.00 | 31 | 1022.0 |
| 20260502034007 | 59 | 178 | 4.0 | 4.0 | 0.00 | 0.00 | 0.00 | 31 | 1022.0 |
| 20260502033808 | 59 | 178 | 4.0 | 4.0 | 0.00 | 0.00 | 0.00 | 31 | 1022.0 |
| 20260502033607 | 59 | 181 | 4.0 | 4.0 | 0.00 | 0.00 | 0.00 | 31 | 1022.0 |
| 20260502033407 | 59 | 184 | 4.0 | 4.0 | 0.00 | 0.00 | 0.00 | 31 | 1022.0 |
| 20260502033207 | 59 | 186 | 4.0 | 4.0 | 0.00 | 0.00 | 0.00 | 31 | 1022.0 |
| 20260502033007 | 59 | 187 | 4.0 | 4.0 | 0.00 | 0.00 | 0.00 | 31 | 1022.0 |
| 20260502032807 | 58 | 187 | 3.0 | 4.0 | 0.00 | 0.00 | 0.00 | 31 | 1023.0 |
| 20260502032608 | 59 | 186 | 4.0 | 5.0 | 0.00 | 0.00 | 0.00 | 31 | 1023.0 |
| 20260502032407 | 59 | 183 | 4.0 | 5.0 | 0.00 | 0.00 | 0.00 | 31 | 1023.0 |
| 20260502032207 | 59 | 178 | 4.0 | 5.0 | 0.00 | 0.00 | 0.00 | 31 | 1023.0 |
| 20260502031807 | 59 | 173 | 4.0 | 6.0 | 0.00 | 0.00 | 0.00 | 31 | 1023.0 |
| 20260502031607 | 58 | 173 | 3.0 | 6.0 | 0.00 | 0.00 | 0.00 | 31 | 1023.0 |
| 20260502031407 | 59 | 174 | 4.0 | 6.0 | 0.00 | 0.00 | 0.00 | 31 | 1023.0 |
| 20260502031007 | 59 | 177 | 5.0 | 7.0 | 0.00 | 0.00 | 0.00 | 31 | 1023.0 |
| 20260502030808 | 59 | 177 | 6.0 | 7.0 | 0.00 | 0.00 | 0.00 | 31 | 1023.0 |
| 20260502030607 | 59 | 177 | 6.0 | 7.0 | 0.00 | 0.00 | 0.00 | 31 | 1023.0 |
| 20260502030207 | 59 | 177 | 6.0 | 7.0 | 0.00 | 0.00 | 0.00 | 31 | 1023.0 |
| 20260502030008 | 59 | 175 | 6.0 | 7.0 | 0.00 | 0.00 | 0.00 | 31 | 1023.0 |
| 20260502025807 | 59 | 173 | 6.0 | 7.0 | 0.00 | 0.00 | 0.00 | 31 | 1023.0 |
| 20260502025607 | 59 | 171 | 7.0 | 7.0 | 0.00 | 0.00 | 0.00 | 31 | 1023.0 |
| 20260502025407 | 59 | 169 | 7.0 | 7.0 | 0.00 | 0.00 | 0.00 | 31 | 1023.0 |
| 20260502025207 | 59 | 169 | 6.0 | 7.0 | 0.00 | 0.00 | 0.00 | 31 | 1023.0 |
| 20260502025007 | 58 | 170 | 5.0 | 7.0 | 0.00 | 0.00 | 0.00 | 31 | 1023.0 |
| 20260502024808 | 59 | 172 | 5.0 | 7.0 | 0.00 | 0.00 | 0.00 | 31 | 1023.0 |
| 20260502024607 | 58 | 171 | 6.0 | 7.0 | 0.00 | 0.00 | 0.00 | 31 | 1023.0 |
| 20260502024407 | 58 | 169 | 6.0 | 7.0 | 0.00 | 0.00 | 0.00 | 32 | 1023.0 |
| 20260502024207 | 59 | 165 | 7.0 | 7.0 | 0.00 | 0.00 | 0.00 | 32 | 1023.0 |
| 20260502024008 | 59 | 160 | 6.0 | 7.0 | 0.00 | 0.00 | 0.00 | 32 | 1023.0 |
| 20260502023808 | 58 | 156 | 5.0 | 7.0 | 0.00 | 0.00 | 0.00 | 32 | 1023.0 |
| 20260502023607 | 58 | 154 | 6.0 | 6.0 | 0.00 | 0.00 | 0.00 | 32 | 1023.0 |
| 20260502023407 | 58 | 154 | 6.0 | 6.0 | 0.00 | 0.00 | 0.00 | 32 | 1023.0 |
| 20260502023208 | 58 | 156 | 5.0 | 6.0 | 0.00 | 0.00 | 0.00 | 32 | 1023.0 |
| 20260502023007 | 58 | 158 | 5.0 | 6.0 | 0.00 | 0.00 | 0.00 | 32 | 1023.0 |
| 20260502022807 | 58 | 159 | 6.0 | 6.0 | 0.00 | 0.00 | 0.00 | 32 | 1023.0 |
| 20260502022607 | 58 | 160 | 6.0 | 6.0 | 0.00 | 0.00 | 0.00 | 32 | 1023.0 |
| 20260502022407 | 58 | 160 | 5.0 | 6.0 | 0.00 | 0.00 | 0.00 | 32 | 1023.0 |
| 20260502022207 | 58 | 160 | 6.0 | 6.0 | 0.00 | 0.00 | 0.00 | 32 | 1023.0 |
| 20260502022007 | 58 | 158 | 6.0 | 6.0 | 0.00 | 0.00 | 0.00 | 32 | 1023.0 |
| 20260502021808 | 57 | 156 | 4.0 | 6.0 | 0.00 | 0.00 | 0.00 | 32 | 1023.0 |
| 20260502021607 | 57 | 156 | 4.0 | 4.0 | 0.00 | 0.00 | 0.00 | 32 | 1023.0 |
| 20260502020807 | 58 | 149 | 4.0 | 4.0 | 0.00 | 0.00 | 0.00 | 32 | 1023.0 |
| 20260502020607 | 58 | 148 | 3.0 | 4.0 | 0.00 | 0.00 | 0.00 | 32 | 1023.0 |
| 20260502020408 | 58 | 150 | 4.0 | 4.0 | 0.00 | 0.00 | 0.00 | 32 | 1023.0 |
| 20260502020207 | 58 | 156 | 3.0 | 4.0 | 0.00 | 0.00 | 0.00 | 32 | 1023.0 |
| 20260502015807 | 58 | 165 | 4.0 | 5.0 | 0.00 | 0.00 | 0.00 | 32 | 1023.0 |
| 20260502015607 | 58 | 165 | 4.0 | 5.0 | 0.00 | 0.00 | 0.00 | 32 | 1023.0 |
| 20260502015407 | 58 | 164 | 4.0 | 5.0 | 0.00 | 0.00 | 0.00 | 32 | 1023.0 |
| 20260502015207 | 58 | 162 | 4.0 | 5.0 | 0.00 | 0.00 | 0.00 | 32 | 1023.0 |
| 20260502015007 | 58 | 161 | 4.0 | 5.0 | 0.00 | 0.00 | 0.00 | 32 | 1023.0 |
| 20260502014807 | 58 | 161 | 4.0 | 5.0 | 0.00 | 0.00 | 0.00 | 32 | 1023.0 |
| 20260502014607 | 58 | 161 | 4.0 | 5.0 | 0.00 | 0.00 | 0.00 | 32 | 1023.0 |
| 20260502014407 | 58 | 163 | 5.0 | 5.0 | 0.00 | 0.00 | 0.00 | 32 | 1023.0 |
| 20260502014209 | 58 | 166 | 4.0 | 5.0 | 0.00 | 0.00 | 0.00 | 32 | 1023.0 |
| 20260502014008 | 58 | 167 | 4.0 | 5.0 | 0.00 | 0.00 | 0.00 | 32 | 1023.0 |
| 20260502013607 | 59 | 167 | 4.0 | 5.0 | 0.00 | 0.00 | 0.00 | 32 | 1023.0 |
| 20260502013407 | 59 | 164 | 4.0 | 5.0 | 0.00 | 0.00 | 0.00 | 32 | 1023.0 |
| 20260502013207 | 59 | 160 | 4.0 | 5.0 | 0.00 | 0.00 | 0.00 | 32 | 1023.0 |
| 20260502013007 | 58 | 154 | 4.0 | 5.0 | 0.00 | 0.00 | 0.00 | 32 | 1023.0 |
| 20260502012807 | 58 | 149 | 4.0 | 5.0 | 0.00 | 0.00 | 0.00 | 32 | 1023.0 |
| 20260502012207 | 58 | 150 | 4.0 | 4.0 | 0.00 | 0.00 | 0.00 | 32 | 1023.0 |
| 20260502012007 | 58 | 162 | 4.0 | 4.0 | 0.00 | 0.00 | 0.00 | 32 | 1023.0 |
| 20260502011807 | 58 | 176 | 4.0 | 5.0 | 0.00 | 0.00 | 0.00 | 32 | 1023.0 |
| 20260502011607 | 58 | 182 | 3.0 | 5.0 | 0.00 | 0.00 | 0.00 | 32 | 1023.0 |
| 20260502011207 | 59 | 185 | 4.0 | 5.0 | 0.00 | 0.00 | 0.00 | 32 | 1023.0 |
| 20260502011007 | 58 | 177 | 4.0 | 5.0 | 0.00 | 0.00 | 0.00 | 32 | 1023.0 |
| 20260502010808 | 58 | 166 | 4.0 | 5.0 | 0.00 | 0.00 | 0.00 | 32 | 1023.0 |
| 20260502010607 | 58 | 158 | 4.0 | 5.0 | 0.00 | 0.00 | 0.00 | 33 | 1023.0 |
| 20260502010407 | 58 | 153 | 4.0 | 5.0 | 0.00 | 0.00 | 0.00 | 33 | 1023.0 |
| 20260502010207 | 58 | 149 | 4.0 | 4.0 | 0.00 | 0.00 | 0.00 | 33 | 1023.0 |
| 20260502005807 | 58 | 150 | 4.0 | 4.0 | 0.00 | 0.00 | 0.00 | 33 | 1023.0 |
| 20260502005607 | 57 | 153 | 4.0 | 5.0 | 0.00 | 0.00 | 0.00 | 33 | 1023.0 |
| 20260502005407 | 57 | 153 | 4.0 | 5.0 | 0.00 | 0.00 | 0.00 | 33 | 1023.0 |
| 20260502005207 | 57 | 151 | 4.0 | 5.0 | 0.00 | 0.00 | 0.00 | 33 | 1023.0 |
| 20260502005007 | 57 | 145 | 4.0 | 5.0 | 0.00 | 0.00 | 0.00 | 33 | 1023.0 |
| 20260502004807 | 57 | 142 | 4.0 | 5.0 | 0.00 | 0.00 | 0.00 | 33 | 1023.0 |
| 20260502004608 | 57 | 141 | 4.0 | 5.0 | 0.00 | 0.00 | 0.00 | 33 | 1023.0 |
| 20260502004207 | 58 | 142 | 4.0 | 5.0 | 0.00 | 0.00 | 0.00 | 32 | 1023.0 |
| 20260502004008 | 57 | 146 | 4.0 | 4.0 | 0.00 | 0.00 | 0.00 | 33 | 1023.0 |
| 20260502003808 | 57 | 147 | 4.0 | 4.0 | 0.00 | 0.00 | 0.00 | 33 | 1023.0 |
| 20260502003607 | 57 | 145 | 4.0 | 4.0 | 0.00 | 0.00 | 0.00 | 32 | 1023.0 |
| 20260502003207 | 58 | 128 | 3.0 | 5.0 | 0.00 | 0.00 | 0.00 | 32 | 1023.0 |
| 20260502003007 | 58 | 120 | 4.0 | 5.0 | 0.00 | 0.00 | 0.00 | 32 | 1023.0 |
| 20260502002607 | 59 | 104 | 4.0 | 5.0 | 0.00 | 0.00 | 0.00 | 31 | 1023.0 |
| 20260502002207 | 58 | 104 | 4.0 | 5.0 | 0.00 | 0.00 | 0.00 | 31 | 1023.0 |
| 20260502001808 | 58 | 109 | 4.0 | 4.0 | 0.00 | 0.00 | 0.00 | 31 | 1023.0 |
| 20260502001407 | 58 | 105 | 4.0 | 7.0 | 0.00 | 0.00 | 0.00 | 31 | 1023.0 |
| 20260502001207 | 58 | 98 | 4.0 | 7.0 | 0.00 | 0.00 | 0.00 | 31 | 1023.0 |
| 20260502001007 | 59 | 90 | 3.0 | 7.0 | 0.00 | 0.00 | 0.00 | 31 | 1023.0 |
| 20260502000807 | 59 | 80 | 4.0 | 7.0 | 0.00 | 0.00 | 0.00 | 30 | 1023.0 |
| 20260502000609 | 60 | 71 | 5.0 | 7.0 | 0.00 | 0.00 | 0.00 | 30 | 1023.0 |
| 20260502000409 | 60 | 62 | 5.0 | 7.0 | 0.00 | 0.00 | 0.00 | 30 | 1023.0 |
| 20260502000207 | 60 | 53 | 5.0 | 7.0 | 0.00 | 0.00 | 0.00 | 30 | 1023.0 |
| 20260501235808 | 60 | 42 | 5.0 | 7.0 | 0.00 | 0.00 | 0.00 | 30 | 1023.0 |
| 20260501235607 | 60 | 39 | 6.0 | 7.0 | 0.00 | 0.00 | 0.00 | 30 | 1023.0 |
| 20260501235407 | 60 | 35 | 6.0 | 7.0 | 0.00 | 0.00 | 0.00 | 30 | 1023.0 |
| 20260501235207 | 60 | 33 | 6.0 | 7.0 | 0.00 | 0.00 | 0.00 | 30 | 1023.0 |
| 20260501235007 | 60 | 31 | 6.0 | 7.0 | 0.00 | 0.00 | 0.00 | 30 | 1023.0 |
| 20260501234807 | 60 | 29 | 6.0 | 8.0 | 0.00 | 0.00 | 0.00 | 30 | 1023.0 |
| 20260501234608 | 60 | 27 | 6.0 | 8.0 | 0.00 | 0.00 | 0.00 | 30 | 1023.0 |
| 20260501234407 | 61 | 25 | 7.0 | 8.0 | 0.00 | 0.00 | 0.00 | 30 | 1023.0 |
| 20260501234207 | 61 | 24 | 7.0 | 8.0 | 0.00 | 0.00 | 0.00 | 30 | 1023.0 |
| 20260501234007 | 61 | 22 | 7.0 | 8.0 | 0.00 | 0.00 | 0.00 | 30 | 1023.0 |
| 20260501233807 | 61 | 20 | 6.0 | 7.0 | 0.00 | 0.00 | 0.00 | 30 | 1023.0 |
| 20260501233607 | 61 | 19 | 6.0 | 7.0 | 0.00 | 0.00 | 0.00 | 30 | 1023.0 |
| 20260501233407 | 61 | 18 | 6.0 | 7.0 | 0.00 | 0.00 | 0.00 | 30 | 1023.0 |
| 20260501233207 | 61 | 17 | 6.0 | 7.0 | 0.00 | 0.00 | 0.00 | 30 | 1023.0 |
| 20260501233007 | 60 | 17 | 6.0 | 7.0 | 0.00 | 0.00 | 0.00 | 30 | 1023.0 |
| 20260501232807 | 60 | 15 | 6.0 | 8.0 | 0.00 | 0.00 | 0.00 | 30 | 1023.0 |
| 20260501232607 | 60 | 13 | 6.0 | 8.0 | 0.00 | 0.00 | 0.00 | 30 | 1023.0 |
| 20260501231807 | 60 | 11 | 6.0 | 8.0 | 0.00 | 0.00 | 0.00 | 30 | 1023.0 |
| 20260501231609 | 60 | 11 | 5.0 | 8.0 | 0.00 | 0.00 | 0.00 | 30 | 1023.0 |
| 20260501231407 | 60 | 11 | 6.0 | 8.0 | 0.00 | 0.00 | 0.00 | 30 | 1023.0 |
| 20260501231207 | 60 | 11 | 6.0 | 8.0 | 0.00 | 0.00 | 0.00 | 30 | 1023.0 |
| 20260501231007 | 60 | 8 | 7.0 | 9.0 | 0.00 | 0.00 | 0.00 | 30 | 1023.0 |
| 20260501230808 | 61 | 7 | 6.0 | 9.0 | 0.00 | 0.00 | 0.00 | 31 | 1023.0 |
| 20260501230608 | 60 | 7 | 7.0 | 9.0 | 0.00 | 0.00 | 0.00 | 30 | 1023.0 |
| 20260501230407 | 61 | 4 | 6.0 | 9.0 | 0.00 | 0.00 | 0.00 | 30 | 1023.0 |
| 20260501230207 | 60 | 2 | 6.0 | 9.0 | 0.00 | 0.00 | 0.00 | 31 | 1023.0 |
| 20260501230008 | 61 | 3 | 6.0 | 9.0 | 0.00 | 0.00 | 0.00 | 31 | 1023.0 |
| 20260501225807 | 61 | 2 | 7.0 | 9.0 | 0.00 | 0.00 | 0.00 | 31 | 1023.0 |
| 20260501225608 | 60 | 359 | 5.0 | 8.0 | 0.00 | 0.00 | 0.00 | 31 | 1023.0 |
| 20260501225409 | 60 | 359 | 6.0 | 8.0 | 0.00 | 0.00 | 0.00 | 31 | 1023.0 |
| 20260501225207 | 61 | 358 | 7.0 | 8.0 | 0.00 | 0.00 | 0.00 | 31 | 1023.0 |
| 20260501225007 | 60 | 356 | 7.0 | 8.0 | 0.00 | 0.00 | 0.00 | 31 | 1023.0 |
| 20260501224608 | 60 | 352 | 5.0 | 8.0 | 0.00 | 0.00 | 0.00 | 31 | 1023.0 |
| 20260501224207 | 60 | 352 | 6.0 | 9.0 | 0.00 | 0.00 | 0.00 | 32 | 1024.0 |
| 20260501224008 | 60 | 350 | 6.0 | 9.0 | 0.00 | 0.00 | 0.00 | 32 | 1024.0 |
| 20260501223607 | 60 | 353 | 5.0 | 9.0 | 0.00 | 0.00 | 0.00 | 32 | 1024.0 |
| 20260501223407 | 60 | 350 | 6.0 | 9.0 | 0.00 | 0.00 | 0.00 | 31 | 1024.0 |
| 20260501223207 | 60 | 348 | 6.0 | 10.0 | 0.00 | 0.00 | 0.00 | 32 | 1024.0 |
| 20260501223008 | 60 | 349 | 6.0 | 10.0 | 0.00 | 0.00 | 0.00 | 31 | 1024.0 |
| 20260501222407 | 60 | 340 | 5.0 | 10.0 | 0.00 | 0.00 | 0.00 | 31 | 1024.0 |
| 20260501222207 | 60 | 339 | 5.0 | 9.0 | 0.00 | 0.00 | 0.00 | 32 | 1024.0 |
| 20260501222008 | 60 | 340 | 6.0 | 9.0 | 0.00 | 0.00 | 0.00 | 32 | 1024.0 |
| 20260501221807 | 60 | 337 | 4.0 | 11.0 | 0.00 | 0.00 | 0.00 | 32 | 1024.0 |
| 20260501221607 | 60 | 333 | 5.0 | 11.0 | 0.00 | 0.00 | 0.00 | 32 | 1024.0 |
| 20260501221408 | 60 | 337 | 6.0 | 11.0 | 0.00 | 0.00 | 0.00 | 32 | 1023.0 |
| 20260501221007 | 60 | 333 | 5.0 | 11.0 | 0.00 | 0.00 | 0.00 | 31 | 1023.0 |
| 20260501220807 | 60 | 334 | 5.0 | 10.0 | 0.00 | 0.00 | 0.00 | 31 | 1023.0 |
| 20260501220607 | 60 | 337 | 6.0 | 10.0 | 0.00 | 0.00 | 0.00 | 31 | 1023.0 |
| 20260501220407 | 60 | 333 | 5.0 | 10.0 | 0.00 | 0.00 | 0.00 | 31 | 1023.0 |
| 20260501220207 | 60 | 335 | 7.0 | 10.0 | 0.00 | 0.00 | 0.00 | 31 | 1023.0 |
| 20260501220008 | 60 | 335 | 6.0 | 9.0 | 0.00 | 0.00 | 0.00 | 31 | 1023.0 |
| 20260501215808 | 60 | 334 | 6.0 | 9.0 | 0.00 | 0.00 | 0.00 | 31 | 1023.0 |
| 20260501215607 | 60 | 331 | 6.0 | 9.0 | 0.00 | 0.00 | 0.00 | 31 | 1023.0 |
| 20260501215407 | 61 | 331 | 6.0 | 10.0 | 0.00 | 0.00 | 0.00 | 31 | 1023.0 |
| 20260501215208 | 61 | 326 | 6.0 | 11.0 | 0.00 | 0.00 | 0.00 | 31 | 1023.0 |
| 20260501215007 | 60 | 322 | 6.0 | 11.0 | 0.00 | 0.00 | 0.00 | 31 | 1023.0 |
| 20260501214808 | 60 | 321 | 6.0 | 11.0 | 0.00 | 0.00 | 0.00 | 31 | 1023.0 |
| 20260501214607 | 60 | 325 | 5.0 | 12.0 | 0.00 | 0.00 | 0.00 | 31 | 1023.0 |
| 20260501214407 | 60 | 319 | 6.0 | 12.0 | 0.00 | 0.00 | 0.00 | 31 | 1023.0 |
| 20260501214207 | 60 | 321 | 5.0 | 12.0 | 0.00 | 0.00 | 0.00 | 31 | 1023.0 |
| 20260501214007 | 60 | 321 | 5.0 | 12.0 | 0.00 | 0.00 | 0.00 | 31 | 1023.0 |
| 20260501213807 | 60 | 317 | 7.0 | 12.0 | 0.00 | 0.00 | 0.00 | 31 | 1023.0 |
| 20260501213608 | 60 | 309 | 4.0 | 8.0 | 0.00 | 0.00 | 0.00 | 31 | 1023.0 |
| 20260501213209 | 60 | 315 | 5.0 | 8.0 | 0.00 | 0.00 | 0.00 | 31 | 1023.0 |
| 20260501212408 | 60 | 323 | 6.0 | 8.0 | 0.00 | 0.00 | 0.00 | 30 | 1024.0 |
| 20260501212207 | 61 | 323 | 4.0 | 8.0 | 0.00 | 0.00 | 0.00 | 30 | 1024.0 |
| 20260501212007 | 61 | 323 | 6.0 | 8.0 | 0.00 | 0.00 | 0.00 | 30 | 1024.0 |
| 20260501211808 | 61 | 324 | 6.0 | 7.0 | 0.00 | 0.00 | 0.00 | 30 | 1024.0 |
| 20260501211407 | 61 | 320 | 5.0 | 7.0 | 0.00 | 0.00 | 0.00 | 29 | 1024.0 |
| 20260501211207 | 61 | 320 | 5.0 | 9.0 | 0.00 | 0.00 | 0.00 | 29 | 1024.0 |
| 20260501211007 | 61 | 322 | 5.0 | 9.0 | 0.00 | 0.00 | 0.00 | 29 | 1024.0 |
| 20260501210807 | 61 | 322 | 4.0 | 9.0 | 0.00 | 0.00 | 0.00 | 29 | 1024.0 |
| 20260501210607 | 61 | 322 | 4.0 | 9.0 | 0.00 | 0.00 | 0.00 | 28 | 1024.0 |
| 20260501210409 | 61 | 321 | 5.0 | 9.0 | 0.00 | 0.00 | 0.00 | 28 | 1024.0 |
| 20260501210207 | 61 | 320 | 5.0 | 9.0 | 0.00 | 0.00 | 0.00 | 28 | 1024.0 |
| 20260501210008 | 61 | 321 | 4.0 | 9.0 | 0.00 | 0.00 | 0.00 | 28 | 1024.0 |
| 20260501205807 | 62 | 322 | 4.0 | 9.0 | 0.00 | 0.00 | 0.00 | 28 | 1024.0 |
| 20260501205407 | 62 | 326 | 7.0 | 10.0 | 0.00 | 0.00 | 0.00 | 27 | 1024.0 |
| 20260501205207 | 62 | 328 | 5.0 | 10.0 | 0.00 | 0.00 | 0.00 | 27 | 1024.0 |
| 20260501205007 | 62 | 327 | 5.0 | 10.0 | 0.00 | 0.00 | 0.00 | 27 | 1024.0 |
| 20260501204807 | 62 | 326 | 6.0 | 10.0 | 0.00 | 0.00 | 0.00 | 27 | 1024.0 |
| 20260501204608 | 62 | 327 | 6.0 | 9.0 | 0.00 | 0.00 | 0.00 | 26 | 1024.0 |
| 20260501204408 | 62 | 328 | 7.0 | 9.0 | 0.00 | 0.00 | 0.00 | 26 | 1024.0 |
| 20260501204207 | 62 | 327 | 5.0 | 9.0 | 0.00 | 0.00 | 0.00 | 26 | 1024.0 |
| 20260501203807 | 62 | 330 | 5.0 | 9.0 | 0.00 | 0.00 | 0.00 | 26 | 1024.0 |
| 20260501203607 | 62 | 331 | 5.0 | 9.0 | 0.00 | 0.00 | 0.00 | 26 | 1024.0 |
| 20260501203407 | 62 | 332 | 6.0 | 9.0 | 0.00 | 0.00 | 0.00 | 25 | 1024.0 |
| 20260501203008 | 63 | 325 | 6.0 | 9.0 | 0.00 | 0.00 | 0.00 | 25 | 1024.0 |
| 20260501202809 | 63 | 323 | 4.0 | 9.0 | 0.00 | 0.00 | 0.00 | 25 | 1024.0 |
| 20260501202608 | 63 | 321 | 6.0 | 9.0 | 0.00 | 0.00 | 0.00 | 25 | 1024.0 |
| 20260501202407 | 63 | 316 | 6.0 | 9.0 | 0.00 | 0.00 | 0.00 | 25 | 1024.0 |
| 20260501202207 | 62 | 315 | 7.0 | 8.0 | 0.00 | 0.00 | 0.00 | 25 | 1024.0 |
| 20260501202007 | 62 | 317 | 6.0 | 8.0 | 0.00 | 0.00 | 0.00 | 25 | 1024.0 |
| 20260501201607 | 62 | 323 | 4.0 | 7.0 | 0.00 | 0.00 | 0.00 | 25 | 1024.0 |
| 20260501201407 | 62 | 325 | 4.0 | 5.0 | 0.00 | 0.00 | 0.00 | 25 | 1024.0 |
| 20260501201207 | 62 | 326 | 3.0 | 5.0 | 0.00 | 0.00 | 0.00 | 25 | 1024.0 |
| 20260501201009 | 62 | 327 | 4.0 | 5.0 | 0.00 | 0.00 | 0.00 | 25 | 1024.0 |
| 20260501200809 | 62 | 323 | 4.0 | 5.0 | 0.00 | 0.00 | 0.00 | 25 | 1024.0 |
| 20260501200608 | 62 | 313 | 4.0 | 5.0 | 0.00 | 0.00 | 0.00 | 25 | 1024.0 |
| 20260501200407 | 62 | 313 | 0.0 | 5.0 | 0.00 | 0.00 | 0.00 | 25 | 1024.0 |
| 20260501200207 | 62 | 309 | 3.0 | 5.0 | 0.00 | 0.00 | 0.00 | 25 | 1024.0 |
| 20260501200008 | 62 | 306 | 0.0 | 5.0 | 0.00 | 0.00 | 0.00 | 25 | 1024.0 |